Time;durP1;ratioP1;P1;durP2;ratioP2;P2;SDS_P1;SDS_P2;PMS_P1;PMS_P2;Temp;Humidity;BMP_temperature;BMP_pressure;BME280_temperature;BME280_humidity;BME280_pressure;Samples;Min_cycle;Max_cycle;Signal;HPM_P1;HPM_P2
2022/11/14 00:02:35;;;;;;;50.30;19.23;;;7.40;99.90;;;;;;5076009;28;20449;-78
2022/11/14 00:05:21;;;;;;;53.10;19.40;;;7.40;99.90;;;;;;5088735;28;20055;-78
2022/11/14 00:08:15;;;;;;;52.03;19.77;;;7.40;99.90;;;;;;5075844;28;20056;-78
2022/11/14 00:11:00;;;;;;;41.75;16.13;;;7.40;99.90;;;;;;5078728;28;20051;-78
2022/11/14 00:13:46;;;;;;;48.60;17.95;;;7.40;99.90;;;;;;5083160;28;20047;-78
2022/11/14 00:16:32;;;;;;;44.70;15.82;;;7.40;99.90;;;;;;5078262;28;20050;-78
2022/11/14 00:19:17;;;;;;;39.33;15.07;;;7.30;99.90;;;;;;5082038;28;20109;-78
2022/11/14 00:22:03;;;;;;;41.15;15.52;;;7.30;99.90;;;;;;5081271;28;20141;-78
2022/11/14 00:24:48;;;;;;;40.63;15.05;;;7.30;99.90;;;;;;5084633;28;20054;-78
2022/11/14 00:27:34;;;;;;;42.22;15.73;;;7.30;99.90;;;;;;5079168;28;20048;-78
2022/11/14 00:30:20;;;;;;;43.50;15.98;;;7.40;99.90;;;;;;5078726;28;20070;-78
2022/11/14 00:33:05;;;;;;;44.70;15.50;;;7.30;99.90;;;;;;5078938;28;20051;-78
2022/11/14 00:35:55;;;;;;;45.35;15.93;;;7.30;99.90;;;;;;5085260;28;20105;-78
2022/11/14 00:38:40;;;;;;;44.35;16.25;;;7.30;99.90;;;;;;5082989;28;20055;-78
2022/11/14 00:41:26;;;;;;;51.50;17.90;;;7.30;99.90;;;;;;5081871;28;20119;-78
2022/11/14 00:44:11;;;;;;;40.40;16.05;;;7.40;99.90;;;;;;5074162;28;20461;-78
2022/11/14 00:46:57;;;;;;;49.35;16.73;;;7.30;99.90;;;;;;5079926;28;20047;-78
2022/11/14 00:49:42;;;;;;;48.35;18.42;;;7.30;99.90;;;;;;5079205;28;20051;-78
2022/11/14 00:52:28;;;;;;;40.33;15.88;;;7.30;99.90;;;;;;5075770;28;20613;-78
2022/11/14 00:55:14;;;;;;;53.35;18.60;;;7.40;99.90;;;;;;5076927;28;20154;-78
2022/11/14 00:57:59;;;;;;;47.78;18.05;;;7.40;99.90;;;;;;5081352;28;20461;-78
2022/11/14 01:00:45;;;;;;;56.33;19.30;;;7.40;99.90;;;;;;5074632;28;20154;-78
2022/11/14 01:03:30;;;;;;;51.08;19.52;;;7.40;99.90;;;;;;5075056;28;20051;-78
2022/11/14 01:06:17;;;;;;;46.45;17.17;;;7.40;99.90;;;;;;5082137;28;20044;-78
2022/11/14 01:09:03;;;;;;;47.97;18.40;;;7.40;99.90;;;;;;5080828;28;20101;-78
2022/11/14 01:11:48;;;;;;;48.97;17.23;;;7.40;99.90;;;;;;5083631;28;20054;-78
2022/11/14 01:14:34;;;;;;;52.47;18.98;;;7.40;99.90;;;;;;5079325;28;20185;-78
2022/11/14 01:17:20;;;;;;;47.15;16.23;;;7.40;99.90;;;;;;5080630;28;20055;-78
2022/11/14 01:20:06;;;;;;;47.08;18.58;;;7.40;99.90;;;;;;5076860;28;20062;-78
2022/11/14 01:22:52;;;;;;;47.47;17.27;;;7.40;99.90;;;;;;5078043;28;20054;-78
2022/11/14 01:25:39;;;;;;;52.85;18.33;;;7.40;99.90;;;;;;5079372;28;20500;-78
2022/11/14 01:28:25;;;;;;;49.97;16.67;;;7.40;99.90;;;;;;5079465;28;20555;-78
2022/11/14 01:31:18;;;;;;;51.53;18.20;;;7.40;99.90;;;;;;5079615;28;20101;-78
2022/11/14 01:34:03;;;;;;;52.55;16.70;;;7.40;99.90;;;;;;5078869;28;20043;-78
2022/11/14 01:36:49;;;;;;;57.00;20.70;;;7.40;99.90;;;;;;5082599;28;20052;-78
2022/11/14 01:39:35;;;;;;;51.65;18.55;;;7.40;99.90;;;;;;5076701;28;20054;-78
2022/11/14 01:42:20;;;;;;;54.63;19.35;;;7.40;99.90;;;;;;5072620;28;20050;-78
2022/11/14 01:45:45;;;;;;;50.90;17.75;;;7.40;99.90;;;;;;5078157;28;20051;-78
2022/11/14 01:48:48;;;;;;;51.53;16.27;;;7.40;99.90;;;;;;5087948;28;20093;-78
2022/11/14 01:52:01;;;;;;;53.30;19.13;;;7.40;99.90;;;;;;5080613;28;20067;-78
2022/11/14 01:54:56;;;;;;;52.28;18.90;;;7.50;99.90;;;;;;5079381;28;20052;-78
2022/11/14 01:57:46;;;;;;;52.05;18.98;;;7.40;99.90;;;;;;5083959;28;20054;-78
2022/11/14 02:00:32;;;;;;;49.03;20.00;;;7.40;99.90;;;;;;5079767;28;20052;-78
2022/11/14 02:03:19;;;;;;;45.63;16.50;;;7.50;99.90;;;;;;5083183;28;20186;-78
2022/11/14 02:06:07;;;;;;;47.33;17.30;;;7.40;99.90;;;;;;5084842;28;20050;-78
2022/11/14 02:08:54;;;;;;;48.35;17.52;;;7.40;99.90;;;;;;5081312;28;20044;-78
2022/11/14 02:11:43;;;;;;;48.45;17.75;;;7.40;99.90;;;;;;5084882;28;20051;-78
2022/11/14 02:14:29;;;;;;;49.65;18.85;;;7.40;99.90;;;;;;5083051;28;20043;-78
2022/11/14 02:17:17;;;;;;;54.50;19.35;;;7.40;99.90;;;;;;5085966;28;20194;-78
2022/11/14 02:20:22;;;;;;;53.83;20.00;;;7.40;99.90;;;;;;5082552;28;20059;-78
2022/11/14 02:23:09;;;;;;;47.30;17.98;;;7.40;99.90;;;;;;5076351;28;20052;-78
2022/11/14 02:25:55;;;;;;;54.33;20.52;;;7.40;99.90;;;;;;5083255;28;20132;-78
2022/11/14 02:28:41;;;;;;;49.08;18.55;;;7.50;99.90;;;;;;5081091;28;20067;-78
2022/11/14 02:31:26;;;;;;;47.15;18.40;;;7.40;99.90;;;;;;5088689;28;20055;-78
2022/11/14 02:34:15;;;;;;;50.20;18.67;;;7.40;99.90;;;;;;5080765;28;21408;-78
2022/11/14 02:37:01;;;;;;;58.92;19.58;;;7.40;99.90;;;;;;5084773;28;20054;-78
2022/11/14 02:39:47;;;;;;;49.00;17.25;;;7.40;99.90;;;;;;5085426;28;21771;-78
2022/11/14 02:42:32;;;;;;;53.53;18.92;;;7.50;99.90;;;;;;5085115;28;20047;-78
2022/11/14 02:45:19;;;;;;;57.95;19.17;;;7.50;99.90;;;;;;5080504;28;20115;-78
2022/11/14 02:48:05;;;;;;;54.78;19.17;;;7.50;99.90;;;;;;5082213;28;20692;-78
2022/11/14 02:50:51;;;;;;;55.53;18.88;;;7.50;99.90;;;;;;5083105;28;20522;-78
2022/11/14 02:53:36;;;;;;;52.53;19.10;;;7.50;99.90;;;;;;5080608;28;20070;-78
2022/11/14 02:56:22;;;;;;;58.33;20.48;;;7.50;99.90;;;;;;5077639;28;20123;-78
2022/11/14 02:59:07;;;;;;;47.30;18.45;;;7.40;99.90;;;;;;5081067;28;20098;-78
2022/11/14 03:01:53;;;;;;;48.60;18.67;;;7.40;99.90;;;;;;5079115;28;20132;-78
2022/11/14 03:04:38;;;;;;;49.60;19.13;;;7.40;99.90;;;;;;5084039;28;20193;-78
2022/11/14 03:07:25;;;;;;;50.65;18.17;;;7.40;99.90;;;;;;5085077;28;20402;-78
2022/11/14 03:10:12;;;;;;;45.97;17.75;;;7.40;99.90;;;;;;5090221;28;20047;-78
2022/11/14 03:12:58;;;;;;;49.13;18.73;;;7.40;99.90;;;;;;5077074;28;20043;-78
2022/11/14 03:15:43;;;;;;;53.50;18.75;;;7.30;99.90;;;;;;5084041;28;20414;-78
2022/11/14 03:18:29;;;;;;;48.20;18.67;;;7.30;99.90;;;;;;5086837;28;20093;-78
2022/11/14 03:21:21;;;;;;;56.25;19.58;;;7.40;99.90;;;;;;5082389;28;20051;-78
2022/11/14 03:24:07;;;;;;;50.47;19.00;;;7.40;99.90;;;;;;5078870;28;20051;-78
2022/11/14 03:26:53;;;;;;;53.63;18.95;;;7.40;99.90;;;;;;5078423;28;20055;-78
2022/11/14 03:29:38;;;;;;;51.17;19.52;;;7.40;99.90;;;;;;5075528;28;20042;-78
2022/11/14 03:32:24;;;;;;;51.17;18.20;;;7.50;99.90;;;;;;5079687;28;20593;-78
2022/11/14 03:35:10;;;;;;;49.33;19.02;;;7.40;99.90;;;;;;5083295;28;20052;-78
2022/11/14 03:37:56;;;;;;;46.10;17.15;;;7.40;99.90;;;;;;5077348;28;20410;-78
2022/11/14 03:40:42;;;;;;;50.08;19.50;;;7.40;99.90;;;;;;5078970;28;20054;-78
2022/11/14 03:43:33;;;;;;;53.63;20.38;;;7.40;99.90;;;;;;5086952;28;20118;-78
2022/11/14 03:46:18;;;;;;;50.72;18.75;;;7.30;99.90;;;;;;5079821;28;20043;-78
2022/11/14 03:49:04;;;;;;;47.45;18.52;;;7.30;99.90;;;;;;5083895;28;20129;-78
2022/11/14 03:51:49;;;;;;;47.13;17.67;;;7.30;99.90;;;;;;5084468;28;20050;-78
2022/11/14 03:54:35;;;;;;;46.00;17.75;;;7.30;99.90;;;;;;5078677;28;20242;-78
2022/11/14 03:57:21;;;;;;;47.85;19.15;;;7.30;99.90;;;;;;5081606;28;20126;-78
2022/11/14 04:00:08;;;;;;;46.40;19.42;;;7.30;99.90;;;;;;5080388;28;20055;-78
2022/11/14 04:02:55;;;;;;;44.53;17.20;;;7.30;99.90;;;;;;5081623;28;20170;-78
2022/11/14 04:05:44;;;;;;;45.55;17.42;;;7.30;99.90;;;;;;5079438;28;20060;-78
2022/11/14 04:08:31;;;;;;;50.38;18.80;;;7.30;99.90;;;;;;5079051;28;20399;-78
2022/11/14 04:11:18;;;;;;;44.63;17.92;;;7.30;99.90;;;;;;5078511;28;20757;-78
2022/11/14 04:14:04;;;;;;;42.63;18.08;;;7.30;99.90;;;;;;5079068;28;20048;-78
2022/11/14 04:16:49;;;;;;;42.72;16.63;;;7.30;99.90;;;;;;5076708;28;20051;-78
2022/11/14 04:19:35;;;;;;;36.30;14.95;;;7.20;99.90;;;;;;5081116;28;20055;-78
2022/11/14 04:22:21;;;;;;;37.88;15.93;;;7.20;99.90;;;;;;5078385;28;20059;-77
2022/11/14 04:25:08;;;;;;;38.20;15.23;;;7.20;99.90;;;;;;5084501;28;20066;-77
2022/11/14 04:27:53;;;;;;;42.58;15.82;;;7.20;99.90;;;;;;5084219;28;20047;-77
2022/11/14 04:30:39;;;;;;;37.60;16.05;;;7.10;99.90;;;;;;5078928;28;20079;-78
2022/11/14 04:33:25;;;;;;;37.28;16.02;;;7.20;99.90;;;;;;5073886;28;20059;-78
2022/11/14 04:36:11;;;;;;;41.95;17.23;;;7.20;99.90;;;;;;5083870;28;20166;-78
2022/11/14 04:38:56;;;;;;;51.58;20.42;;;7.20;99.90;;;;;;5072426;28;20047;-78
2022/11/14 04:41:42;;;;;;;48.88;19.80;;;7.20;99.90;;;;;;5079266;28;20148;-78
2022/11/14 04:44:28;;;;;;;46.67;18.02;;;7.20;99.90;;;;;;5077752;28;20056;-78
2022/11/14 04:47:14;;;;;;;52.10;19.63;;;7.20;99.90;;;;;;5075745;28;20581;-78
2022/11/14 04:49:59;;;;;;;57.78;23.60;;;7.20;99.90;;;;;;5075392;28;20051;-78
2022/11/14 04:52:45;;;;;;;48.75;19.42;;;7.20;99.90;;;;;;5083691;28;20062;-78
2022/11/14 04:55:30;;;;;;;42.53;16.77;;;7.20;99.90;;;;;;5083448;28;20051;-78
2022/11/14 04:58:16;;;;;;;36.95;16.17;;;7.20;99.90;;;;;;5088550;28;20055;-78
2022/11/14 05:01:09;;;;;;;42.70;20.52;;;7.20;99.90;;;;;;5083140;28;20062;-78
2022/11/14 05:03:55;;;;;;;56.53;22.15;;;7.10;99.90;;;;;;5079965;28;20059;-78
2022/11/14 05:06:40;;;;;;;55.60;22.45;;;7.10;99.90;;;;;;5076886;28;20051;-78
2022/11/14 05:09:27;;;;;;;45.38;19.00;;;7.10;99.90;;;;;;5077240;28;20170;-78
2022/11/14 05:12:13;;;;;;;41.92;17.20;;;7.20;99.90;;;;;;5076770;28;20090;-78
2022/11/14 05:14:58;;;;;;;35.97;15.40;;;7.20;99.90;;;;;;5072038;28;20059;-78
2022/11/14 05:17:44;;;;;;;39.38;16.58;;;7.10;99.90;;;;;;5075879;28;20056;-78
2022/11/14 05:20:29;;;;;;;33.63;14.45;;;7.20;99.90;;;;;;5076734;28;20133;-78
2022/11/14 05:23:22;;;;;;;34.45;13.55;;;7.10;99.90;;;;;;5083397;28;20054;-78
2022/11/14 05:26:11;;;;;;;38.92;15.32;;;7.00;99.90;;;;;;5074054;28;20047;-78
2022/11/14 05:28:56;;;;;;;38.58;15.43;;;7.10;99.90;;;;;;5075524;28;20043;-78
2022/11/14 05:31:42;;;;;;;32.28;14.15;;;7.00;99.90;;;;;;5083575;28;20046;-78
2022/11/14 05:34:28;;;;;;;30.83;13.68;;;7.00;99.90;;;;;;5077852;28;20170;-78
2022/11/14 05:37:14;;;;;;;33.70;14.32;;;7.10;99.90;;;;;;5078619;28;20118;-78
2022/11/14 05:39:59;;;;;;;32.38;15.15;;;7.00;99.90;;;;;;5083398;28;20058;-78
2022/11/14 05:42:45;;;;;;;29.88;12.93;;;6.90;99.90;;;;;;5077317;28;20141;-77
2022/11/14 05:45:30;;;;;;;30.67;13.00;;;6.90;99.90;;;;;;5076532;28;20059;-78
2022/11/14 05:48:16;;;;;;;28.60;13.18;;;6.70;99.90;;;;;;5074291;28;20406;-78
2022/11/14 05:51:03;;;;;;;31.20;13.38;;;6.80;99.90;;;;;;5078660;28;20051;-78
2022/11/14 05:53:49;;;;;;;29.30;13.55;;;6.90;99.90;;;;;;5081447;28;20122;-77
2022/11/14 05:56:34;;;;;;;30.10;13.00;;;6.80;99.90;;;;;;5081389;28;20066;-78
2022/11/14 05:59:20;;;;;;;31.23;13.43;;;6.70;99.90;;;;;;5081115;28;20062;-78
2022/11/14 06:02:06;;;;;;;30.83;12.98;;;6.70;99.90;;;;;;5079852;28;20059;-78
2022/11/14 06:04:51;;;;;;;30.88;12.68;;;6.70;99.90;;;;;;5083012;28;20051;-78
2022/11/14 06:07:38;;;;;;;29.25;13.52;;;6.70;99.90;;;;;;5079762;28;20039;-78
2022/11/14 06:10:24;;;;;;;32.72;13.50;;;6.70;99.90;;;;;;5076706;28;20052;-78
2022/11/14 06:13:10;;;;;;;30.85;12.43;;;6.70;99.90;;;;;;5081857;28;20046;-78
2022/11/14 06:16:04;;;;;;;33.42;13.32;;;6.70;99.90;;;;;;5073819;28;20418;-78
2022/11/14 06:18:52;;;;;;;38.13;14.85;;;6.80;99.90;;;;;;5082369;28;20063;-78
2022/11/14 06:21:38;;;;;;;38.20;15.93;;;6.80;99.90;;;;;;5076920;28;20064;-78
2022/11/14 06:24:24;;;;;;;40.00;18.35;;;6.80;99.90;;;;;;5074208;28;20047;-78
2022/11/14 06:27:10;;;;;;;45.88;19.67;;;6.90;99.90;;;;;;5076187;28;20062;-78
2022/11/14 06:29:55;;;;;;;43.55;17.85;;;6.80;99.90;;;;;;5075341;28;20148;-78
2022/11/14 06:32:41;;;;;;;45.08;17.55;;;6.90;99.90;;;;;;5083141;28;20612;-78
2022/11/14 06:35:27;;;;;;;35.75;14.95;;;6.90;99.90;;;;;;5081939;28;20055;-78
2022/11/14 06:38:12;;;;;;;34.25;14.48;;;6.90;99.90;;;;;;5083153;28;20729;-78
2022/11/14 06:41:02;;;;;;;35.47;14.15;;;6.80;99.90;;;;;;5085952;28;20173;-78
2022/11/14 06:43:51;;;;;;;33.63;13.85;;;6.80;99.90;;;;;;5082242;28;20059;-78
2022/11/14 06:46:37;;;;;;;36.03;14.57;;;6.80;99.90;;;;;;5082151;28;20059;-78
2022/11/14 06:49:23;;;;;;;33.10;14.82;;;6.80;99.90;;;;;;5081957;28;20048;-78
2022/11/14 06:52:09;;;;;;;28.95;12.10;;;6.90;99.90;;;;;;5082518;28;20056;-77
2022/11/14 06:54:54;;;;;;;29.13;12.13;;;6.80;99.90;;;;;;5083733;28;20528;-77
2022/11/14 06:57:40;;;;;;;29.88;12.27;;;6.70;99.90;;;;;;5083949;28;20054;-77
2022/11/14 07:00:25;;;;;;;30.13;12.23;;;6.70;99.90;;;;;;5076186;28;20077;-77
2022/11/14 07:03:10;;;;;;;29.00;12.80;;;6.90;99.90;;;;;;5075063;28;20059;-79
2022/11/14 07:06:00;;;;;;;29.88;12.65;;;6.90;99.90;;;;;;5080779;28;20052;-80
2022/11/14 07:08:46;;;;;;;28.35;12.70;;;7.00;99.90;;;;;;5077833;28;20051;-79
2022/11/14 07:11:34;;;;;;;31.08;13.32;;;7.00;99.90;;;;;;5082529;28;20047;-80
2022/11/14 07:14:19;;;;;;;36.20;13.32;;;7.00;99.90;;;;;;5082768;28;20044;-79
2022/11/14 07:17:05;;;;;;;27.30;11.88;;;7.00;99.90;;;;;;5083075;28;20423;-79
2022/11/14 07:19:51;;;;;;;32.40;13.18;;;6.90;99.90;;;;;;5081796;28;20526;-80
2022/11/14 07:22:36;;;;;;;33.15;13.38;;;7.00;99.90;;;;;;5086546;28;20422;-79
2022/11/14 07:25:22;;;;;;;27.58;12.05;;;7.00;99.90;;;;;;5084806;28;20132;-79
2022/11/14 07:28:08;;;;;;;28.40;12.85;;;7.00;99.90;;;;;;5080914;28;20047;-79
2022/11/14 07:30:54;;;;;;;32.10;12.77;;;7.10;99.90;;;;;;5076116;28;20059;-79
2022/11/14 07:33:41;;;;;;;31.63;13.45;;;7.10;99.90;;;;;;5083449;28;20414;-79
2022/11/14 07:36:26;;;;;;;32.35;13.18;;;7.20;99.90;;;;;;5080298;28;20055;-79
2022/11/14 07:39:12;;;;;;;34.92;13.60;;;7.20;99.90;;;;;;5079355;28;20047;-79
2022/11/14 07:41:58;;;;;;;30.38;13.48;;;7.20;99.90;;;;;;5080703;28;20063;-79
2022/11/14 07:44:43;;;;;;;31.23;12.43;;;7.30;99.90;;;;;;5081988;28;20067;-79
2022/11/14 07:47:29;;;;;;;28.75;13.15;;;7.40;99.90;;;;;;5089023;28;20466;-79
2022/11/14 07:50:14;;;;;;;43.50;14.43;;;7.60;99.90;;;;;;5082904;28;20782;-79
2022/11/14 07:53:04;;;;;;;22.13;11.25;;;7.50;99.90;;;;;;5081165;28;20519;-79
2022/11/14 07:55:50;;;;;;;23.92;10.95;;;7.40;99.90;;;;;;5086808;28;20051;-79
2022/11/14 07:58:37;;;;;;;22.45;10.80;;;7.10;99.90;;;;;;5084071;28;20059;-79
2022/11/14 08:01:22;;;;;;;23.55;11.88;;;7.10;99.90;;;;;;5078426;28;20144;-78
2022/11/14 08:04:08;;;;;;;26.58;12.32;;;7.00;99.90;;;;;;5080320;28;20410;-78
2022/11/14 08:06:53;;;;;;;25.48;11.07;;;7.10;99.90;;;;;;5088298;28;20516;-78
2022/11/14 08:09:38;;;;;;;28.88;12.30;;;7.20;99.90;;;;;;5081126;28;20182;-79
2022/11/14 08:12:24;;;;;;;25.15;11.57;;;7.20;99.90;;;;;;5079948;28;20069;-79
2022/11/14 08:15:12;;;;;;;25.40;11.02;;;7.10;99.90;;;;;;5085511;28;20533;-79
2022/11/14 08:17:59;;;;;;;23.70;10.88;;;7.00;99.90;;;;;;5081366;28;20635;-79
2022/11/14 08:20:45;;;;;;;27.83;11.85;;;7.20;99.90;;;;;;5078065;28;20063;-79
2022/11/14 08:23:31;;;;;;;39.80;15.32;;;7.20;99.90;;;;;;5080152;28;20117;-79
2022/11/14 08:26:17;;;;;;;39.70;14.38;;;7.30;99.90;;;;;;5084490;28;20430;-79
2022/11/14 08:29:02;;;;;;;39.95;16.38;;;7.40;99.90;;;;;;5081075;28;20055;-79
2022/11/14 08:31:48;;;;;;;20.20;10.25;;;7.40;99.90;;;;;;5084101;28;20126;-78
2022/11/14 08:34:35;;;;;;;27.38;11.50;;;7.50;99.90;;;;;;5077462;28;20089;-78
2022/11/14 08:37:21;;;;;;;29.73;11.60;;;7.50;99.90;;;;;;5078207;28;20137;-79
2022/11/14 08:40:07;;;;;;;35.20;13.57;;;7.60;99.90;;;;;;5084012;28;20211;-79
2022/11/14 08:43:01;;;;;;;37.90;15.10;;;7.70;99.90;;;;;;5079112;28;20052;-79
2022/11/14 08:45:47;;;;;;;40.70;15.32;;;7.70;99.90;;;;;;5078662;28;20075;-79
2022/11/14 08:48:32;;;;;;;30.00;13.45;;;7.80;99.90;;;;;;5081376;28;20407;-79
2022/11/14 08:51:18;;;;;;;37.53;14.23;;;7.80;99.90;;;;;;5081523;28;20135;-79
2022/11/14 08:54:04;;;;;;;32.33;12.55;;;7.90;99.90;;;;;;5082905;28;20091;-79
2022/11/14 08:56:49;;;;;;;45.28;16.05;;;7.80;99.90;;;;;;5084341;28;20135;-79
2022/11/14 08:59:35;;;;;;;43.70;17.50;;;7.80;99.90;;;;;;5078850;28;20608;-79
2022/11/14 09:02:20;;;;;;;31.88;13.70;;;7.90;99.90;;;;;;5073378;28;20047;-79
2022/11/14 09:05:06;;;;;;;23.38;11.27;;;8.00;99.90;;;;;;5082258;28;20398;-80
2022/11/14 09:07:52;;;;;;;26.25;11.55;;;8.10;99.90;;;;;;5077006;28;20407;-80
2022/11/14 09:10:37;;;;;;;24.45;11.48;;;8.20;99.90;;;;;;5083953;28;20047;-80
2022/11/14 09:13:23;;;;;;;28.05;12.68;;;8.20;99.90;;;;;;5081725;28;20051;-80
2022/11/14 09:16:10;;;;;;;25.88;12.48;;;8.30;99.90;;;;;;5077744;28;20395;-79
2022/11/14 09:18:55;;;;;;;25.48;12.43;;;8.30;99.90;;;;;;5073063;28;20089;-79
2022/11/14 09:21:41;;;;;;;27.30;12.55;;;8.40;99.90;;;;;;5078190;28;20055;-79
2022/11/14 09:24:26;;;;;;;23.35;11.20;;;8.40;99.90;;;;;;5078852;28;20054;-80
2022/11/14 09:27:13;;;;;;;28.33;13.02;;;8.50;99.90;;;;;;5073270;28;20559;-79
2022/11/14 09:29:58;;;;;;;28.63;13.82;;;8.60;99.90;;;;;;5082928;28;20110;-79
2022/11/14 09:32:44;;;;;;;27.08;12.40;;;8.60;99.90;;;;;;5074920;28;20517;-80
2022/11/14 09:35:30;;;;;;;47.05;17.90;;;8.70;99.90;;;;;;5083221;28;20062;-79
2022/11/14 09:38:16;;;;;;;34.63;13.93;;;8.80;99.90;;;;;;5080234;28;20156;-79
2022/11/14 09:41:08;;;;;;;28.00;13.77;;;8.90;99.90;;;;;;5083435;28;20419;-80
2022/11/14 09:44:19;;;;;;;27.17;11.15;;;8.80;99.90;;;;;;5080450;28;20063;-79
2022/11/14 09:47:15;;;;;;;26.60;13.00;;;8.90;99.90;;;;;;5086905;28;20047;-80
2022/11/14 09:50:07;;;;;;;30.33;14.30;;;8.90;99.90;;;;;;5080057;28;20127;-80
2022/11/14 09:53:06;;;;;;;27.10;13.55;;;9.00;99.90;;;;;;5072263;28;20047;-80
2022/11/14 09:55:52;;;;;;;27.88;13.70;;;9.10;99.90;;;;;;5079358;28;20044;-79
2022/11/14 09:58:40;;;;;;;25.08;12.45;;;9.10;99.90;;;;;;5076552;28;20744;-79
2022/11/14 10:01:44;;;;;;;28.02;11.73;;;9.10;99.90;;;;;;5086157;28;20116;-79
2022/11/14 10:04:36;;;;;;;25.95;12.90;;;9.30;99.90;;;;;;5071035;28;20113;-80
2022/11/14 10:07:40;;;;;;;23.15;12.25;;;9.30;99.90;;;;;;5076342;28;20209;-79
2022/11/14 10:10:44;;;;;;;25.20;12.45;;;9.40;99.90;;;;;;5083120;28;20569;-79
2022/11/14 10:14:00;;;;;;;26.20;12.32;;;9.30;99.90;;;;;;5078551;28;20051;-79
2022/11/14 10:17:15;;;;;;;25.90;13.23;;;9.40;99.90;;;;;;5085880;28;20223;-80
2022/11/14 10:20:18;;;;;;;26.85;12.57;;;9.50;99.90;;;;;;5065363;28;20097;-79
2022/11/14 10:23:46;;;;;;;25.52;13.15;;;9.60;99.90;;;;;;5081492;28;20133;-79
2022/11/14 10:26:41;;;;;;;30.10;13.85;;;9.60;99.90;;;;;;5079692;28;20071;-79
2022/11/14 10:29:33;;;;;;;45.65;19.15;;;9.70;99.90;;;;;;5079864;28;20171;-80
2022/11/14 10:32:54;;;;;;;26.15;13.98;;;9.80;99.90;;;;;;5081463;28;20047;-79
2022/11/14 10:35:49;;;;;;;26.48;13.10;;;9.80;99.90;;;;;;5073209;28;20051;-78
2022/11/14 10:38:47;;;;;;;24.70;12.30;;;9.80;99.90;;;;;;5077969;28;20513;-79
2022/11/14 10:41:33;;;;;;;23.77;11.55;;;9.90;99.90;;;;;;5079348;28;20052;-80
2022/11/14 10:44:49;;;;;;;26.20;13.00;;;9.90;99.90;;;;;;5081011;28;20056;-80
2022/11/14 10:47:39;;;;;;;27.30;13.43;;;10.10;99.90;;;;;;5082810;28;20055;-79
2022/11/14 10:50:41;;;;;;;29.27;14.13;;;10.10;99.90;;;;;;5080926;28;20047;-80
2022/11/14 10:53:36;;;;;;;25.13;13.73;;;10.10;99.90;;;;;;5077150;28;20055;-80
2022/11/14 10:56:22;;;;;;;24.15;13.25;;;10.20;99.90;;;;;;5079901;28;20066;-80
2022/11/14 10:59:08;;;;;;;28.50;14.02;;;10.30;99.90;;;;;;5077940;28;20198;-80
2022/11/14 11:01:57;;;;;;;25.67;14.20;;;10.30;99.90;;;;;;5075778;28;20059;-80
2022/11/14 11:04:44;;;;;;;25.83;13.25;;;10.40;99.90;;;;;;5081471;28;20052;-79
2022/11/14 11:13:56;;;;;;;25.63;11.80;;;10.40;99.90;;;;;;5077597;28;20406;-80
2022/11/14 11:16:41;;;;;;;26.83;12.65;;;10.50;99.90;;;;;;5082646;28;20536;-80
2022/11/14 11:19:29;;;;;;;24.55;12.25;;;10.50;99.90;;;;;;5085558;28;20056;-80
2022/11/14 11:22:35;;;;;;;27.38;12.98;;;10.40;99.90;;;;;;5077149;28;20052;-79
2022/11/14 11:25:27;;;;;;;26.67;13.27;;;10.50;99.90;;;;;;5091906;27;20524;-80
2022/11/14 11:28:15;;;;;;;27.83;13.18;;;10.60;99.90;;;;;;5084583;28;20516;-80
2022/11/14 11:31:07;;;;;;;23.52;11.60;;;10.70;99.90;;;;;;5080541;28;20051;-79
2022/11/14 11:33:54;;;;;;;26.90;12.77;;;10.70;99.90;;;;;;5081863;28;20051;-80
2022/11/14 11:36:45;;;;;;;29.85;12.98;;;10.70;99.90;;;;;;5074772;28;20090;-80
2022/11/14 11:39:40;;;;;;;26.75;12.32;;;10.80;99.90;;;;;;5080447;28;20062;-80
2022/11/14 11:42:55;;;;;;;20.15;10.38;;;10.70;99.90;;;;;;5083219;28;20197;-79
2022/11/14 11:46:08;;;;;;;23.40;12.25;;;10.70;99.90;;;;;;5084078;28;20107;-80
2022/11/14 11:49:04;;;;;;;29.40;14.18;;;10.80;99.90;;;;;;5086718;28;20122;-80
2022/11/14 11:51:54;;;;;;;28.08;12.90;;;10.80;99.90;;;;;;5074443;28;20052;-80
2022/11/14 11:54:51;;;;;;;23.27;11.05;;;10.80;99.90;;;;;;5090586;28;20059;-79
2022/11/14 11:58:00;;;;;;;32.22;15.32;;;10.80;99.90;;;;;;5075610;28;20056;-80
2022/11/14 12:00:45;;;;;;;23.50;12.23;;;10.70;99.90;;;;;;5075280;28;20062;-79
2022/11/14 12:03:31;;;;;;;23.77;11.40;;;10.60;99.90;;;;;;5075302;28;20162;-80
2022/11/14 12:06:26;;;;;;;28.10;11.98;;;10.70;99.90;;;;;;5075584;28;20477;-80
2022/11/14 12:09:20;;;;;;;26.63;12.65;;;10.70;99.90;;;;;;5074625;28;20044;-80
2022/11/14 12:12:20;;;;;;;24.75;12.00;;;10.70;99.90;;;;;;5077909;28;20048;-80
2022/11/14 12:15:15;;;;;;;30.73;13.13;;;10.70;99.90;;;;;;5072837;28;20047;-80
2022/11/14 12:18:17;;;;;;;24.98;12.38;;;10.70;99.90;;;;;;5077401;28;23854;-80
2022/11/14 12:21:13;;;;;;;23.40;11.05;;;10.70;99.90;;;;;;5073585;28;20059;-79
2022/11/14 12:24:08;;;;;;;29.88;13.45;;;10.70;99.90;;;;;;5073744;28;20564;-80
2022/11/14 12:27:13;;;;;;;25.02;12.77;;;10.70;99.90;;;;;;5075338;28;20182;-80
2022/11/14 12:30:17;;;;;;;25.15;12.10;;;10.60;99.90;;;;;;5075605;28;20064;-79
2022/11/14 12:33:29;;;;;;;23.98;12.77;;;10.70;99.90;;;;;;5077334;28;20402;-80
2022/11/14 12:36:14;;;;;;;24.75;10.80;;;10.70;99.90;;;;;;5076277;28;20414;-80
2022/11/14 12:39:01;;;;;;;24.63;12.55;;;10.80;99.90;;;;;;5077468;28;20126;-79
2022/11/14 12:41:47;;;;;;;19.13;10.02;;;10.70;99.90;;;;;;5081780;28;20051;-80
2022/11/14 12:44:37;;;;;;;25.88;11.30;;;10.70;99.90;;;;;;5077678;28;20528;-80
2022/11/14 12:47:25;;;;;;;19.05;9.05;;;10.70;99.90;;;;;;5076939;28;20581;-79
2022/11/14 12:50:49;;;;;;;21.27;9.52;;;10.70;99.90;;;;;;5076977;28;20047;-80
2022/11/14 12:53:34;;;;;;;;;;;10.60;99.90;;;;;;5074088;28;20055;-79
2022/11/14 12:56:29;;;;;;;22.90;10.80;;;10.60;99.90;;;;;;5080111;28;20108;-80
2022/11/14 12:59:21;;;;;;;20.10;9.40;;;10.60;99.90;;;;;;5079461;28;20130;-79
2022/11/14 13:02:19;;;;;;;22.42;11.52;;;10.60;99.90;;;;;;5078434;28;20333;-80
2022/11/14 13:05:45;;;;;;;19.67;10.07;;;10.50;99.90;;;;;;5079174;28;20075;-79
2022/11/14 13:08:53;;;;;;;19.90;10.52;;;10.50;99.90;;;;;;5076037;28;20047;-80
2022/11/14 13:21:46;;;;;;;21.25;10.50;;;10.50;99.90;;;;;;5078758;28;20051;-80
2022/11/14 13:24:56;;;;;;;20.92;10.75;;;10.40;99.90;;;;;;5079261;28;20059;-79
2022/11/14 13:27:42;;;;;;;21.80;10.65;;;10.40;99.90;;;;;;5074247;28;20074;-79
2022/11/14 13:31:18;;;;;;;22.70;10.23;;;10.40;99.90;;;;;;5077951;28;20118;-78
2022/11/14 13:34:45;;;;;;;23.70;11.40;;;10.40;99.90;;;;;;5078869;28;20462;-79
2022/11/14 13:37:52;;;;;;;20.27;10.15;;;10.40;99.90;;;;;;5076642;28;20055;-79
2022/11/14 13:40:54;;;;;;;23.98;9.57;;;10.30;99.90;;;;;;5085157;28;20194;-79
2022/11/14 13:43:53;;;;;;;22.42;10.88;;;10.30;99.90;;;;;;5085956;28;21034;-79
2022/11/14 13:47:02;;;;;;;23.58;11.50;;;10.30;99.90;;;;;;5095320;28;20051;-79
2022/11/14 13:50:03;;;;;;;24.70;12.40;;;10.30;99.90;;;;;;5089234;28;20063;-79
2022/11/14 13:52:49;;;;;;;23.55;11.68;;;10.30;99.90;;;;;;5088554;28;20116;-79
2022/11/14 13:55:54;;;;;;;22.55;10.45;;;10.20;99.90;;;;;;5085060;28;20047;-79
2022/11/14 13:59:15;;;;;;;41.53;22.10;;;10.20;99.90;;;;;;5085826;28;20415;-79
2022/11/14 14:02:30;;;;;;;36.28;19.58;;;10.20;99.90;;;;;;5058606;28;20135;-80
2022/11/14 14:05:46;;;;;;;28.27;13.68;;;10.20;99.90;;;;;;5081304;28;20058;-80
2022/11/14 14:08:48;;;;;;;55.40;38.53;;;10.20;99.90;;;;;;5084183;28;20047;-78
2022/11/14 14:12:05;;;;;;;23.02;11.65;;;10.10;99.90;;;;;;5082453;28;20089;-79
2022/11/14 14:15:16;;;;;;;22.25;11.30;;;10.10;99.90;;;;;;5089638;28;20100;-80
2022/11/14 14:18:17;;;;;;;27.50;13.13;;;10.00;99.90;;;;;;5083992;28;20059;-79
2022/11/14 14:21:08;;;;;;;23.23;11.32;;;10.00;99.90;;;;;;5078048;28;20051;-80
2022/11/14 14:24:12;;;;;;;22.25;10.95;;;10.00;99.90;;;;;;5087374;28;20055;-79
2022/11/14 14:27:22;;;;;;;23.60;12.82;;;9.90;99.90;;;;;;5086143;28;20118;-80
2022/11/14 14:30:17;;;;;;;20.60;10.18;;;9.90;99.90;;;;;;5083407;28;20050;-80
2022/11/14 14:33:06;;;;;;;23.52;12.20;;;9.80;99.90;;;;;;5080866;28;20109;-80
2022/11/14 14:35:52;;;;;;;25.67;11.45;;;9.80;99.90;;;;;;5081710;28;20055;-79
2022/11/14 14:38:38;;;;;;;23.83;11.38;;;9.70;99.90;;;;;;5079737;28;20104;-80
2022/11/14 14:41:29;;;;;;;36.60;16.52;;;9.60;99.90;;;;;;5082399;28;20567;-80
2022/11/14 14:44:22;;;;;;;34.38;15.93;;;9.50;99.90;;;;;;5085928;28;20051;-80
2022/11/14 14:47:15;;;;;;;31.42;15.80;;;9.50;99.90;;;;;;5079946;28;20055;-80
2022/11/14 14:50:23;;;;;;;28.05;13.30;;;9.50;99.90;;;;;;5087123;28;20052;-80
2022/11/14 14:53:23;;;;;;;32.83;21.15;;;9.40;99.90;;;;;;5091646;28;20102;-80